sensor_id;sensor_type;location;lat;lon;timestamp;temperature;humidity
10149;DHT22;5115;50.920;6.376;2023-07-29T00:01:40;20.20;99.90
10149;DHT22;5115;50.920;6.376;2023-07-29T00:06:34;20.30;99.90
10149;DHT22;5115;50.920;6.376;2023-07-29T00:08:59;20.30;99.90
10149;DHT22;5115;50.920;6.376;2023-07-29T00:11:25;20.30;99.90
10149;DHT22;5115;50.920;6.376;2023-07-29T00:13:51;20.20;99.90
10149;DHT22;5115;50.920;6.376;2023-07-29T00:16:18;20.20;99.90
10149;DHT22;5115;50.920;6.376;2023-07-29T00:18:46;20.20;99.90
10149;DHT22;5115;50.920;6.376;2023-07-29T00:23:38;20.20;99.90
10149;DHT22;5115;50.920;6.376;2023-07-29T00:26:04;20.20;99.90
10149;DHT22;5115;50.920;6.376;2023-07-29T00:28:29;20.20;99.90
10149;DHT22;5115;50.920;6.376;2023-07-29T00:30:55;20.20;99.90
10149;DHT22;5115;50.920;6.376;2023-07-29T00:33:21;20.20;99.90
10149;DHT22;5115;50.920;6.376;2023-07-29T00:35:46;20.30;99.90
10149;DHT22;5115;50.920;6.376;2023-07-29T00:38:12;20.30;99.90
10149;DHT22;5115;50.920;6.376;2023-07-29T00:40:38;20.30;99.90
10149;DHT22;5115;50.920;6.376;2023-07-29T00:43:03;20.20;99.90
10149;DHT22;5115;50.920;6.376;2023-07-29T00:45:30;20.20;99.90
10149;DHT22;5115;50.920;6.376;2023-07-29T00:47:56;20.20;99.90
10149;DHT22;5115;50.920;6.376;2023-07-29T00:50:22;20.20;99.90
10149;DHT22;5115;50.920;6.376;2023-07-29T00:52:49;20.30;99.90
10149;DHT22;5115;50.920;6.376;2023-07-29T00:55:14;20.30;99.90
10149;DHT22;5115;50.920;6.376;2023-07-29T00:57:41;20.30;99.90
10149;DHT22;5115;50.920;6.376;2023-07-29T01:00:08;20.40;99.90
10149;DHT22;5115;50.920;6.376;2023-07-29T01:02:35;20.40;99.90
10149;DHT22;5115;50.920;6.376;2023-07-29T01:05:01;20.40;99.90
10149;DHT22;5115;50.920;6.376;2023-07-29T01:10:04;20.40;99.90
10149;DHT22;5115;50.920;6.376;2023-07-29T01:15:22;20.40;99.90
10149;DHT22;5115;50.920;6.376;2023-07-29T01:17:54;20.80;99.90
10149;DHT22;5115;50.920;6.376;2023-07-29T01:20:21;20.40;99.90
10149;DHT22;5115;50.920;6.376;2023-07-29T01:22:49;20.50;99.90
10149;DHT22;5115;50.920;6.376;2023-07-29T01:25:15;20.50;99.90
10149;DHT22;5115;50.920;6.376;2023-07-29T01:27:44;20.50;99.90
10149;DHT22;5115;50.920;6.376;2023-07-29T01:30:10;20.50;99.90
10149;DHT22;5115;50.920;6.376;2023-07-29T01:35:33;20.50;99.90
10149;DHT22;5115;50.920;6.376;2023-07-29T01:38:07;20.50;99.90
10149;DHT22;5115;50.920;6.376;2023-07-29T01:43:00;20.50;99.90
10149;DHT22;5115;50.920;6.376;2023-07-29T01:45:25;20.50;99.90
10149;DHT22;5115;50.920;6.376;2023-07-29T01:47:51;20.50;99.90
10149;DHT22;5115;50.920;6.376;2023-07-29T01:50:17;20.50;99.90
10149;DHT22;5115;50.920;6.376;2023-07-29T01:55:09;20.60;99.90
10149;DHT22;5115;50.920;6.376;2023-07-29T01:57:34;20.60;99.90
10149;DHT22;5115;50.920;6.376;2023-07-29T02:00:01;20.70;99.90
10149;DHT22;5115;50.920;6.376;2023-07-29T02:02:29;20.70;99.90
10149;DHT22;5115;50.920;6.376;2023-07-29T02:04:54;20.70;99.90
10149;DHT22;5115;50.920;6.376;2023-07-29T02:07:21;20.70;99.90
10149;DHT22;5115;50.920;6.376;2023-07-29T02:09:46;20.70;99.90
10149;DHT22;5115;50.920;6.376;2023-07-29T02:12:12;20.70;99.90
10149;DHT22;5115;50.920;6.376;2023-07-29T02:14:38;20.80;99.90
10149;DHT22;5115;50.920;6.376;2023-07-29T02:17:04;20.70;99.90
10149;DHT22;5115;50.920;6.376;2023-07-29T02:19:29;20.70;99.90
10149;DHT22;5115;50.920;6.376;2023-07-29T02:21:55;20.70;99.90
10149;DHT22;5115;50.920;6.376;2023-07-29T02:24:20;20.70;99.90
10149;DHT22;5115;50.920;6.376;2023-07-29T02:26:46;20.70;99.90
10149;DHT22;5115;50.920;6.376;2023-07-29T02:29:12;20.70;99.90
10149;DHT22;5115;50.920;6.376;2023-07-29T02:31:37;20.70;99.90
10149;DHT22;5115;50.920;6.376;2023-07-29T02:34:04;20.70;99.90
10149;DHT22;5115;50.920;6.376;2023-07-29T02:38:55;20.60;99.90
10149;DHT22;5115;50.920;6.376;2023-07-29T02:41:21;20.60;99.90
10149;DHT22;5115;50.920;6.376;2023-07-29T02:43:50;20.60;99.90
10149;DHT22;5115;50.920;6.376;2023-07-29T02:46:16;20.50;99.90
10149;DHT22;5115;50.920;6.376;2023-07-29T02:48:43;20.40;99.90
10149;DHT22;5115;50.920;6.376;2023-07-29T02:51:09;20.50;99.90
10149;DHT22;5115;50.920;6.376;2023-07-29T02:53:35;20.50;99.90
10149;DHT22;5115;50.920;6.376;2023-07-29T02:56:02;20.50;99.90
10149;DHT22;5115;50.920;6.376;2023-07-29T02:58:28;20.40;99.90
10149;DHT22;5115;50.920;6.376;2023-07-29T03:01:03;20.40;99.90
10149;DHT22;5115;50.920;6.376;2023-07-29T03:03:29;20.40;99.90
10149;DHT22;5115;50.920;6.376;2023-07-29T03:06:09;20.40;99.90
10149;DHT22;5115;50.920;6.376;2023-07-29T03:08:36;20.30;99.90
10149;DHT22;5115;50.920;6.376;2023-07-29T03:11:09;20.30;99.90
10149;DHT22;5115;50.920;6.376;2023-07-29T03:13:35;20.30;99.90
10149;DHT22;5115;50.920;6.376;2023-07-29T03:16:12;20.30;99.90
10149;DHT22;5115;50.920;6.376;2023-07-29T03:18:38;20.30;99.90
10149;DHT22;5115;50.920;6.376;2023-07-29T03:21:04;20.30;99.90
10149;DHT22;5115;50.920;6.376;2023-07-29T03:23:31;20.30;99.90
10149;DHT22;5115;50.920;6.376;2023-07-29T03:25:58;20.30;99.90
10149;DHT22;5115;50.920;6.376;2023-07-29T03:28:26;23.10;99.90
10149;DHT22;5115;50.920;6.376;2023-07-29T03:30:56;20.20;99.90
10149;DHT22;5115;50.920;6.376;2023-07-29T03:33:22;20.20;99.90
10149;DHT22;5115;50.920;6.376;2023-07-29T03:35:48;20.20;99.90
10149;DHT22;5115;50.920;6.376;2023-07-29T03:38:14;20.20;99.90
10149;DHT22;5115;50.920;6.376;2023-07-29T03:40:40;20.30;99.90
10149;DHT22;5115;50.920;6.376;2023-07-29T03:43:06;20.30;99.90
10149;DHT22;5115;50.920;6.376;2023-07-29T03:45:33;20.30;99.90
10149;DHT22;5115;50.920;6.376;2023-07-29T03:47:58;20.30;99.90
10149;DHT22;5115;50.920;6.376;2023-07-29T03:52:50;20.20;99.90
10149;DHT22;5115;50.920;6.376;2023-07-29T03:55:16;20.20;99.90
10149;DHT22;5115;50.920;6.376;2023-07-29T03:57:42;20.20;99.90
10149;DHT22;5115;50.920;6.376;2023-07-29T04:00:08;22.20;99.90
10149;DHT22;5115;50.920;6.376;2023-07-29T04:02:36;20.20;99.90
10149;DHT22;5115;50.920;6.376;2023-07-29T04:05:03;20.20;99.90
10149;DHT22;5115;50.920;6.376;2023-07-29T04:07:29;20.20;99.90
10149;DHT22;5115;50.920;6.376;2023-07-29T04:09:55;20.20;99.90
10149;DHT22;5115;50.920;6.376;2023-07-29T04:12:21;20.20;99.90
10149;DHT22;5115;50.920;6.376;2023-07-29T04:14:47;20.10;99.90
10149;DHT22;5115;50.920;6.376;2023-07-29T04:17:12;20.20;99.90
10149;DHT22;5115;50.920;6.376;2023-07-29T04:19:38;20.20;99.90
10149;DHT22;5115;50.920;6.376;2023-07-29T04:22:04;20.10;99.90
10149;DHT22;5115;50.920;6.376;2023-07-29T04:24:29;18.00;99.90
10149;DHT22;5115;50.920;6.376;2023-07-29T04:26:55;20.10;99.90
10149;DHT22;5115;50.920;6.376;2023-07-29T04:29:21;20.10;99.90
10149;DHT22;5115;50.920;6.376;2023-07-29T04:31:50;20.10;99.90
10149;DHT22;5115;50.920;6.376;2023-07-29T04:34:20;20.10;99.90
10149;DHT22;5115;50.920;6.376;2023-07-29T04:36:46;20.20;99.90
10149;DHT22;5115;50.920;6.376;2023-07-29T04:39:12;20.20;99.90
10149;DHT22;5115;50.920;6.376;2023-07-29T04:41:37;20.20;99.90
10149;DHT22;5115;50.920;6.376;2023-07-29T04:44:04;20.20;99.90
10149;DHT22;5115;50.920;6.376;2023-07-29T04:46:30;20.20;99.90
10149;DHT22;5115;50.920;6.376;2023-07-29T04:56:13;20.10;99.90
10149;DHT22;5115;50.920;6.376;2023-07-29T04:58:39;20.10;99.90
10149;DHT22;5115;50.920;6.376;2023-07-29T05:01:05;20.10;99.90
10149;DHT22;5115;50.920;6.376;2023-07-29T05:03:31;20.10;99.90
10149;DHT22;5115;50.920;6.376;2023-07-29T05:05:58;20.10;99.90
10149;DHT22;5115;50.920;6.376;2023-07-29T05:08:27;20.20;99.90
10149;DHT22;5115;50.920;6.376;2023-07-29T05:10:53;20.10;99.90
10149;DHT22;5115;50.920;6.376;2023-07-29T05:13:20;20.10;99.90
10149;DHT22;5115;50.920;6.376;2023-07-29T05:15:47;20.10;99.90
10149;DHT22;5115;50.920;6.376;2023-07-29T05:18:13;20.00;99.90
10149;DHT22;5115;50.920;6.376;2023-07-29T05:20:38;20.10;99.90
10149;DHT22;5115;50.920;6.376;2023-07-29T05:23:04;20.00;99.90
10149;DHT22;5115;50.920;6.376;2023-07-29T05:25:29;20.00;99.90
10149;DHT22;5115;50.920;6.376;2023-07-29T05:27:55;20.00;99.90
10149;DHT22;5115;50.920;6.376;2023-07-29T05:30:21;19.90;99.90
10149;DHT22;5115;50.920;6.376;2023-07-29T05:37:38;20.00;99.90
10149;DHT22;5115;50.920;6.376;2023-07-29T05:40:06;19.90;99.90
10149;DHT22;5115;50.920;6.376;2023-07-29T05:42:32;19.90;99.90
10149;DHT22;5115;50.920;6.376;2023-07-29T05:44:58;19.90;99.90
10149;DHT22;5115;50.920;6.376;2023-07-29T05:47:23;19.90;99.90
10149;DHT22;5115;50.920;6.376;2023-07-29T05:49:50;19.90;99.90
10149;DHT22;5115;50.920;6.376;2023-07-29T05:52:16;19.80;99.90
10149;DHT22;5115;50.920;6.376;2023-07-29T05:54:42;19.80;99.90
10149;DHT22;5115;50.920;6.376;2023-07-29T05:57:11;19.90;99.90
10149;DHT22;5115;50.920;6.376;2023-07-29T05:59:38;19.80;99.90
10149;DHT22;5115;50.920;6.376;2023-07-29T06:02:04;19.90;99.90
10149;DHT22;5115;50.920;6.376;2023-07-29T06:04:30;19.90;99.90
10149;DHT22;5115;50.920;6.376;2023-07-29T06:06:56;19.90;99.90
10149;DHT22;5115;50.920;6.376;2023-07-29T06:09:24;19.80;99.90
10149;DHT22;5115;50.920;6.376;2023-07-29T06:11:51;19.90;99.90
10149;DHT22;5115;50.920;6.376;2023-07-29T06:14:16;20.00;99.90
10149;DHT22;5115;50.920;6.376;2023-07-29T06:16:42;20.00;99.90
10149;DHT22;5115;50.920;6.376;2023-07-29T06:19:07;20.20;99.90
10149;DHT22;5115;50.920;6.376;2023-07-29T06:21:34;23.00;99.90
10149;DHT22;5115;50.920;6.376;2023-07-29T06:24:00;20.40;99.90
10149;DHT22;5115;50.920;6.376;2023-07-29T06:26:25;20.50;99.90
10149;DHT22;5115;50.920;6.376;2023-07-29T06:28:51;20.50;99.90
10149;DHT22;5115;50.920;6.376;2023-07-29T06:31:17;20.60;99.90
10149;DHT22;5115;50.920;6.376;2023-07-29T06:33:42;25.00;99.90
10149;DHT22;5115;50.920;6.376;2023-07-29T06:36:08;20.80;99.90
10149;DHT22;5115;50.920;6.376;2023-07-29T06:38:34;20.90;99.90
10149;DHT22;5115;50.920;6.376;2023-07-29T06:40:59;21.00;99.90
10149;DHT22;5115;50.920;6.376;2023-07-29T06:43:25;21.10;99.90
10149;DHT22;5115;50.920;6.376;2023-07-29T06:45:50;21.20;99.90
10149;DHT22;5115;50.920;6.376;2023-07-29T06:48:17;21.30;99.90
10149;DHT22;5115;50.920;6.376;2023-07-29T06:50:44;21.60;99.90
10149;DHT22;5115;50.920;6.376;2023-07-29T06:53:09;21.80;99.90
10149;DHT22;5115;50.920;6.376;2023-07-29T06:55:35;21.90;99.90
10149;DHT22;5115;50.920;6.376;2023-07-29T06:58:01;21.80;99.90
10149;DHT22;5115;50.920;6.376;2023-07-29T07:00:26;21.90;99.90
10149;DHT22;5115;50.920;6.376;2023-07-29T07:02:52;21.90;99.90
10149;DHT22;5115;50.920;6.376;2023-07-29T07:05:17;22.20;99.90
10149;DHT22;5115;50.920;6.376;2023-07-29T07:07:43;23.10;99.90
10149;DHT22;5115;50.920;6.376;2023-07-29T07:10:09;22.30;99.90
10149;DHT22;5115;50.920;6.376;2023-07-29T07:12:34;22.40;99.90
10149;DHT22;5115;50.920;6.376;2023-07-29T07:15:00;22.20;99.90
10149;DHT22;5115;50.920;6.376;2023-07-29T07:17:26;22.10;99.90
10149;DHT22;5115;50.920;6.376;2023-07-29T07:19:51;22.10;99.90
10149;DHT22;5115;50.920;6.376;2023-07-29T07:22:17;22.20;99.90
10149;DHT22;5115;50.920;6.376;2023-07-29T07:24:43;22.30;99.90
10149;DHT22;5115;50.920;6.376;2023-07-29T07:27:09;20.40;99.90
10149;DHT22;5115;50.920;6.376;2023-07-29T07:29:34;22.40;99.90
10149;DHT22;5115;50.920;6.376;2023-07-29T07:32:00;22.40;99.90
10149;DHT22;5115;50.920;6.376;2023-07-29T07:34:26;22.60;99.90
10149;DHT22;5115;50.920;6.376;2023-07-29T07:36:51;22.60;99.90
10149;DHT22;5115;50.920;6.376;2023-07-29T07:39:17;22.70;99.90
10149;DHT22;5115;50.920;6.376;2023-07-29T07:41:43;22.70;99.90
10149;DHT22;5115;50.920;6.376;2023-07-29T07:44:09;23.00;99.90
10149;DHT22;5115;50.920;6.376;2023-07-29T07:46:34;23.90;99.90
10149;DHT22;5115;50.920;6.376;2023-07-29T07:49:00;23.90;99.90
10149;DHT22;5115;50.920;6.376;2023-07-29T07:51:26;24.50;99.90
10149;DHT22;5115;50.920;6.376;2023-07-29T07:53:52;25.00;99.90
10149;DHT22;5115;50.920;6.376;2023-07-29T07:56:17;25.70;99.90
10149;DHT22;5115;50.920;6.376;2023-07-29T07:58:43;25.60;99.90
10149;DHT22;5115;50.920;6.376;2023-07-29T08:01:09;25.70;99.90
10149;DHT22;5115;50.920;6.376;2023-07-29T08:03:35;26.00;99.90
10149;DHT22;5115;50.920;6.376;2023-07-29T08:06:01;26.30;99.90
10149;DHT22;5115;50.920;6.376;2023-07-29T08:08:28;26.50;99.90
10149;DHT22;5115;50.920;6.376;2023-07-29T08:10:54;26.60;99.90
10149;DHT22;5115;50.920;6.376;2023-07-29T08:13:24;26.60;99.90
10149;DHT22;5115;50.920;6.376;2023-07-29T08:15:51;26.60;99.90
10149;DHT22;5115;50.920;6.376;2023-07-29T08:18:17;28.30;99.90
10149;DHT22;5115;50.920;6.376;2023-07-29T08:20:56;25.60;99.90
10149;DHT22;5115;50.920;6.376;2023-07-29T08:23:30;25.20;99.90
10149;DHT22;5115;50.920;6.376;2023-07-29T08:25:58;24.80;99.90
10149;DHT22;5115;50.920;6.376;2023-07-29T08:28:38;24.50;99.90
10149;DHT22;5115;50.920;6.376;2023-07-29T08:31:05;24.30;99.90
10149;DHT22;5115;50.920;6.376;2023-07-29T08:33:32;23.80;99.90
10149;DHT22;5115;50.920;6.376;2023-07-29T08:35:59;23.80;99.90
10149;DHT22;5115;50.920;6.376;2023-07-29T08:38:25;23.80;99.90
10149;DHT22;5115;50.920;6.376;2023-07-29T08:41:19;23.70;99.90
10149;DHT22;5115;50.920;6.376;2023-07-29T08:46:43;23.90;99.90
10149;DHT22;5115;50.920;6.376;2023-07-29T08:49:11;23.90;99.90
10149;DHT22;5115;50.920;6.376;2023-07-29T08:51:41;23.80;99.90
10149;DHT22;5115;50.920;6.376;2023-07-29T08:54:07;23.90;99.90
10149;DHT22;5115;50.920;6.376;2023-07-29T08:56:34;24.20;99.90
10149;DHT22;5115;50.920;6.376;2023-07-29T08:58:59;24.30;99.90
10149;DHT22;5115;50.920;6.376;2023-07-29T09:01:27;24.30;99.90
10149;DHT22;5115;50.920;6.376;2023-07-29T09:03:53;24.50;99.90
10149;DHT22;5115;50.920;6.376;2023-07-29T09:06:19;24.50;99.90
10149;DHT22;5115;50.920;6.376;2023-07-29T09:08:48;24.50;99.90
10149;DHT22;5115;50.920;6.376;2023-07-29T09:11:14;24.50;99.90
10149;DHT22;5115;50.920;6.376;2023-07-29T09:13:42;24.50;99.90
10149;DHT22;5115;50.920;6.376;2023-07-29T09:16:09;24.30;99.90
10149;DHT22;5115;50.920;6.376;2023-07-29T09:18:34;24.20;99.90
10149;DHT22;5115;50.920;6.376;2023-07-29T09:21:00;24.30;99.90
10149;DHT22;5115;50.920;6.376;2023-07-29T09:23:26;24.30;99.90
10149;DHT22;5115;50.920;6.376;2023-07-29T09:26:03;24.40;99.90
10149;DHT22;5115;50.920;6.376;2023-07-29T09:28:35;24.40;99.90
10149;DHT22;5115;50.920;6.376;2023-07-29T09:31:00;24.40;99.90
10149;DHT22;5115;50.920;6.376;2023-07-29T09:33:26;24.30;99.90
10149;DHT22;5115;50.920;6.376;2023-07-29T09:35:52;24.20;99.90
10149;DHT22;5115;50.920;6.376;2023-07-29T09:38:18;24.00;99.90
10149;DHT22;5115;50.920;6.376;2023-07-29T09:40:43;23.70;99.90
10149;DHT22;5115;50.920;6.376;2023-07-29T09:43:12;23.50;99.90
10149;DHT22;5115;50.920;6.376;2023-07-29T09:45:38;23.50;99.90
10149;DHT22;5115;50.920;6.376;2023-07-29T09:48:05;23.40;99.90
10149;DHT22;5115;50.920;6.376;2023-07-29T09:50:34;23.30;99.90
10149;DHT22;5115;50.920;6.376;2023-07-29T09:53:01;23.20;99.90
10149;DHT22;5115;50.920;6.376;2023-07-29T09:55:28;23.20;99.90
10149;DHT22;5115;50.920;6.376;2023-07-29T09:57:57;23.10;99.90
10149;DHT22;5115;50.920;6.376;2023-07-29T10:00:31;23.20;99.90
10149;DHT22;5115;50.920;6.376;2023-07-29T10:02:58;23.10;99.90
10149;DHT22;5115;50.920;6.376;2023-07-29T10:05:26;23.10;99.90
10149;DHT22;5115;50.920;6.376;2023-07-29T10:07:52;23.10;99.90
10149;DHT22;5115;50.920;6.376;2023-07-29T10:10:20;23.00;99.90
10149;DHT22;5115;50.920;6.376;2023-07-29T10:12:46;22.90;99.90
10149;DHT22;5115;50.920;6.376;2023-07-29T10:15:12;20.40;99.90
10149;DHT22;5115;50.920;6.376;2023-07-29T10:17:39;22.70;99.90
10149;DHT22;5115;50.920;6.376;2023-07-29T10:20:06;22.60;99.90
10149;DHT22;5115;50.920;6.376;2023-07-29T10:22:42;22.70;99.90
10149;DHT22;5115;50.920;6.376;2023-07-29T10:25:15;22.70;99.90
10149;DHT22;5115;50.920;6.376;2023-07-29T10:27:48;23.50;99.90
10149;DHT22;5115;50.920;6.376;2023-07-29T10:30:14;23.60;99.90
10149;DHT22;5115;50.920;6.376;2023-07-29T10:32:44;24.30;99.90
10149;DHT22;5115;50.920;6.376;2023-07-29T10:35:12;25.20;99.90
10149;DHT22;5115;50.920;6.376;2023-07-29T10:37:38;25.20;99.90
10149;DHT22;5115;50.920;6.376;2023-07-29T10:40:07;23.70;99.90
10149;DHT22;5115;50.920;6.376;2023-07-29T10:42:33;26.00;99.90
10149;DHT22;5115;50.920;6.376;2023-07-29T10:44:59;26.10;99.90
10149;DHT22;5115;50.920;6.376;2023-07-29T10:47:29;26.00;99.90
10149;DHT22;5115;50.920;6.376;2023-07-29T10:49:58;26.00;99.90
10149;DHT22;5115;50.920;6.376;2023-07-29T10:52:42;26.00;99.90
10149;DHT22;5115;50.920;6.376;2023-07-29T10:55:28;25.90;99.90
10149;DHT22;5115;50.920;6.376;2023-07-29T10:58:15;25.70;99.90
10149;DHT22;5115;50.920;6.376;2023-07-29T11:00:44;25.50;99.90
10149;DHT22;5115;50.920;6.376;2023-07-29T11:03:11;25.60;99.90
10149;DHT22;5115;50.920;6.376;2023-07-29T11:05:44;25.80;99.90
10149;DHT22;5115;50.920;6.376;2023-07-29T11:08:31;25.90;99.90
10149;DHT22;5115;50.920;6.376;2023-07-29T11:13:29;26.20;99.90
10149;DHT22;5115;50.920;6.376;2023-07-29T11:15:58;26.40;99.90
10149;DHT22;5115;50.920;6.376;2023-07-29T11:18:29;26.70;99.90
10149;DHT22;5115;50.920;6.376;2023-07-29T11:20:57;27.10;99.90
10149;DHT22;5115;50.920;6.376;2023-07-29T11:23:36;26.90;99.90
10149;DHT22;5115;50.920;6.376;2023-07-29T11:26:04;26.80;99.90
10149;DHT22;5115;50.920;6.376;2023-07-29T11:28:30;26.60;99.90
10149;DHT22;5115;50.920;6.376;2023-07-29T11:30:56;26.50;99.90
10149;DHT22;5115;50.920;6.376;2023-07-29T11:33:24;26.30;99.90
10149;DHT22;5115;50.920;6.376;2023-07-29T11:35:52;26.40;99.90
10149;DHT22;5115;50.920;6.376;2023-07-29T11:38:19;26.40;99.90
10149;DHT22;5115;50.920;6.376;2023-07-29T11:40:59;26.50;99.90
10149;DHT22;5115;50.920;6.376;2023-07-29T11:43:26;26.60;99.90
10149;DHT22;5115;50.920;6.376;2023-07-29T11:45:52;26.60;99.90
10149;DHT22;5115;50.920;6.376;2023-07-29T11:48:25;26.60;99.90
10149;DHT22;5115;50.920;6.376;2023-07-29T11:50:51;26.50;99.90
10149;DHT22;5115;50.920;6.376;2023-07-29T11:53:18;26.60;99.90
10149;DHT22;5115;50.920;6.376;2023-07-29T11:55:44;26.70;99.90
10149;DHT22;5115;50.920;6.376;2023-07-29T11:58:10;26.80;99.90
10149;DHT22;5115;50.920;6.376;2023-07-29T12:00:35;26.80;99.90
10149;DHT22;5115;50.920;6.376;2023-07-29T12:03:03;27.00;99.90
10149;DHT22;5115;50.920;6.376;2023-07-29T12:05:29;29.00;99.90
10149;DHT22;5115;50.920;6.376;2023-07-29T12:07:55;27.10;99.90
10149;DHT22;5115;50.920;6.376;2023-07-29T12:10:21;27.20;99.90
10149;DHT22;5115;50.920;6.376;2023-07-29T12:12:48;27.40;99.90
10149;DHT22;5115;50.920;6.376;2023-07-29T12:15:23;27.40;99.90
10149;DHT22;5115;50.920;6.376;2023-07-29T12:17:49;27.40;99.90
10149;DHT22;5115;50.920;6.376;2023-07-29T12:20:14;27.30;99.90
10149;DHT22;5115;50.920;6.376;2023-07-29T12:22:40;27.20;99.90
10149;DHT22;5115;50.920;6.376;2023-07-29T12:25:06;27.20;99.90
10149;DHT22;5115;50.920;6.376;2023-07-29T12:27:32;26.70;99.90
10149;DHT22;5115;50.920;6.376;2023-07-29T12:29:58;26.50;99.90
10149;DHT22;5115;50.920;6.376;2023-07-29T12:32:29;26.40;99.90
10149;DHT22;5115;50.920;6.376;2023-07-29T12:34:55;26.30;99.90
10149;DHT22;5115;50.920;6.376;2023-07-29T12:37:31;26.30;99.90
10149;DHT22;5115;50.920;6.376;2023-07-29T12:39:57;26.20;99.90
10149;DHT22;5115;50.920;6.376;2023-07-29T12:42:23;26.10;99.90
10149;DHT22;5115;50.920;6.376;2023-07-29T12:44:48;26.10;99.90
10149;DHT22;5115;50.920;6.376;2023-07-29T12:47:14;26.20;99.90
10149;DHT22;5115;50.920;6.376;2023-07-29T12:49:40;26.20;99.90
10149;DHT22;5115;50.920;6.376;2023-07-29T12:52:06;26.10;99.90
10149;DHT22;5115;50.920;6.376;2023-07-29T12:54:31;26.00;99.90
10149;DHT22;5115;50.920;6.376;2023-07-29T12:56:57;25.80;99.90
10149;DHT22;5115;50.920;6.376;2023-07-29T12:59:23;25.50;99.90
10149;DHT22;5115;50.920;6.376;2023-07-29T13:01:48;25.40;99.90
10149;DHT22;5115;50.920;6.376;2023-07-29T13:04:15;25.10;99.90
10149;DHT22;5115;50.920;6.376;2023-07-29T13:06:41;24.70;99.90
10149;DHT22;5115;50.920;6.376;2023-07-29T13:09:06;24.70;99.90
10149;DHT22;5115;50.920;6.376;2023-07-29T13:11:32;24.50;99.90
10149;DHT22;5115;50.920;6.376;2023-07-29T13:13:58;24.30;99.90
10149;DHT22;5115;50.920;6.376;2023-07-29T13:16:24;24.00;99.90
10149;DHT22;5115;50.920;6.376;2023-07-29T13:18:50;23.80;99.90
10149;DHT22;5115;50.920;6.376;2023-07-29T13:21:15;23.60;99.90
10149;DHT22;5115;50.920;6.376;2023-07-29T13:23:41;23.40;99.90
10149;DHT22;5115;50.920;6.376;2023-07-29T13:26:06;24.20;99.90
10149;DHT22;5115;50.920;6.376;2023-07-29T13:28:32;22.90;99.90
10149;DHT22;5115;50.920;6.376;2023-07-29T13:30:58;22.90;99.90
10149;DHT22;5115;50.920;6.376;2023-07-29T13:33:23;22.80;99.90
10149;DHT22;5115;50.920;6.376;2023-07-29T13:35:49;22.80;99.90
10149;DHT22;5115;50.920;6.376;2023-07-29T13:38:14;22.80;99.90
10149;DHT22;5115;50.920;6.376;2023-07-29T13:40:40;22.80;99.90
10149;DHT22;5115;50.920;6.376;2023-07-29T13:43:06;23.00;99.90
10149;DHT22;5115;50.920;6.376;2023-07-29T13:45:31;23.20;99.90
10149;DHT22;5115;50.920;6.376;2023-07-29T13:47:57;23.30;99.90
10149;DHT22;5115;50.920;6.376;2023-07-29T13:50:23;23.20;99.90
10149;DHT22;5115;50.920;6.376;2023-07-29T13:52:49;23.20;99.90
10149;DHT22;5115;50.920;6.376;2023-07-29T13:55:14;23.10;99.90
10149;DHT22;5115;50.920;6.376;2023-07-29T13:57:40;23.20;99.90
10149;DHT22;5115;50.920;6.376;2023-07-29T14:00:06;23.20;99.90
10149;DHT22;5115;50.920;6.376;2023-07-29T14:02:33;23.40;99.90
10149;DHT22;5115;50.920;6.376;2023-07-29T14:04:59;23.40;99.90
10149;DHT22;5115;50.920;6.376;2023-07-29T14:07:26;23.40;99.90
10149;DHT22;5115;50.920;6.376;2023-07-29T14:09:51;23.40;99.90
10149;DHT22;5115;50.920;6.376;2023-07-29T14:12:17;23.40;99.90
10149;DHT22;5115;50.920;6.376;2023-07-29T14:14:42;23.40;99.90
10149;DHT22;5115;50.920;6.376;2023-07-29T14:17:08;23.40;99.90
10149;DHT22;5115;50.920;6.376;2023-07-29T14:19:38;23.40;99.90
10149;DHT22;5115;50.920;6.376;2023-07-29T14:22:04;23.20;99.90
10149;DHT22;5115;50.920;6.376;2023-07-29T14:24:30;23.20;99.90
10149;DHT22;5115;50.920;6.376;2023-07-29T14:26:55;23.00;99.90
10149;DHT22;5115;50.920;6.376;2023-07-29T14:29:21;23.00;99.90
10149;DHT22;5115;50.920;6.376;2023-07-29T14:31:46;22.90;99.90
10149;DHT22;5115;50.920;6.376;2023-07-29T14:34:12;22.90;99.90
10149;DHT22;5115;50.920;6.376;2023-07-29T14:36:38;22.80;99.90
10149;DHT22;5115;50.920;6.376;2023-07-29T14:39:03;22.70;99.90
10149;DHT22;5115;50.920;6.376;2023-07-29T14:41:30;22.60;99.90
10149;DHT22;5115;50.920;6.376;2023-07-29T14:43:55;22.60;99.90
10149;DHT22;5115;50.920;6.376;2023-07-29T14:46:21;22.80;99.90
10149;DHT22;5115;50.920;6.376;2023-07-29T14:48:46;22.70;99.90
10149;DHT22;5115;50.920;6.376;2023-07-29T14:51:12;22.90;99.90
10149;DHT22;5115;50.920;6.376;2023-07-29T14:53:38;23.00;99.90
10149;DHT22;5115;50.920;6.376;2023-07-29T14:56:04;23.00;99.90
10149;DHT22;5115;50.920;6.376;2023-07-29T14:58:30;23.20;99.90
10149;DHT22;5115;50.920;6.376;2023-07-29T15:00:55;23.40;99.90
10149;DHT22;5115;50.920;6.376;2023-07-29T15:03:21;23.50;99.90
10149;DHT22;5115;50.920;6.376;2023-07-29T15:05:46;23.40;99.90
10149;DHT22;5115;50.920;6.376;2023-07-29T15:08:12;23.50;99.90
10149;DHT22;5115;50.920;6.376;2023-07-29T15:10:39;23.50;99.90
10149;DHT22;5115;50.920;6.376;2023-07-29T15:13:04;23.40;99.90
10149;DHT22;5115;50.920;6.376;2023-07-29T15:15:30;23.30;99.90
10149;DHT22;5115;50.920;6.376;2023-07-29T15:17:57;23.30;99.90
10149;DHT22;5115;50.920;6.376;2023-07-29T15:20:22;23.50;99.90
10149;DHT22;5115;50.920;6.376;2023-07-29T15:22:48;23.10;99.90
10149;DHT22;5115;50.920;6.376;2023-07-29T15:25:13;23.10;99.90
10149;DHT22;5115;50.920;6.376;2023-07-29T15:27:39;23.10;99.90
10149;DHT22;5115;50.920;6.376;2023-07-29T15:30:06;22.90;99.90
10149;DHT22;5115;50.920;6.376;2023-07-29T15:32:32;22.80;99.90
10149;DHT22;5115;50.920;6.376;2023-07-29T15:34:59;21.90;99.90
10149;DHT22;5115;50.920;6.376;2023-07-29T15:37:27;22.70;99.90
10149;DHT22;5115;50.920;6.376;2023-07-29T15:39:53;23.40;99.90
10149;DHT22;5115;50.920;6.376;2023-07-29T15:42:19;22.60;99.90
10149;DHT22;5115;50.920;6.376;2023-07-29T15:44:44;22.50;99.90
10149;DHT22;5115;50.920;6.376;2023-07-29T15:47:10;22.70;99.90
10149;DHT22;5115;50.920;6.376;2023-07-29T15:49:38;22.50;99.90
10149;DHT22;5115;50.920;6.376;2023-07-29T15:52:04;22.50;99.90
10149;DHT22;5115;50.920;6.376;2023-07-29T15:54:29;22.50;99.90
10149;DHT22;5115;50.920;6.376;2023-07-29T15:56:55;22.80;99.90
10149;DHT22;5115;50.920;6.376;2023-07-29T15:59:20;22.80;99.90
10149;DHT22;5115;50.920;6.376;2023-07-29T16:01:46;22.80;99.90
10149;DHT22;5115;50.920;6.376;2023-07-29T16:04:11;22.90;99.90
10149;DHT22;5115;50.920;6.376;2023-07-29T16:06:37;22.80;99.90
10149;DHT22;5115;50.920;6.376;2023-07-29T16:09:03;22.90;99.90
10149;DHT22;5115;50.920;6.376;2023-07-29T16:11:32;22.90;99.90
10149;DHT22;5115;50.920;6.376;2023-07-29T16:13:57;24.90;99.90
10149;DHT22;5115;50.920;6.376;2023-07-29T16:16:23;22.90;99.90
10149;DHT22;5115;50.920;6.376;2023-07-29T16:18:49;22.80;99.90
10149;DHT22;5115;50.920;6.376;2023-07-29T16:21:14;22.90;99.90
10149;DHT22;5115;50.920;6.376;2023-07-29T16:23:40;22.80;99.90